Terminal Aerodrome Forecast
Issued by NWS

Current Version | Previous Version | Graphics & Text | Print | Product List | Glossary On
Versions: 1 2 3 4 5 6 7 8 9 10 11 12 13 14 15 16 17 18 19 20 21 22
000
FTUS41 KILN 140800 AAB
TAFLUK
TAF AMD
KLUK 140825Z 1408/1506 20013G20KT P6SM FEW060 BKN200
     FM140900 21020G35KT P6SM -SHRA BKN050 OVC120
     FM141100 21015G25KT P6SM -SHRA OVC050
     FM141700 23014G22KT P6SM VCTS SCT025 OVC045CB
     FM142200 28012G20KT P6SM -RA SCT010 OVC028
     FM150200 33016G25KT 5SM -RA BR OVC008=

USA.gov is the U.S. government's official web portal to all federal, state and local government web resources and services.